This is the latest recevied weather packets stored in our database for station/object KI5MKI. If no packets are shown the sender has not sent any weather packets the latest 1 day(s).
| Time | Temp. | Humidity | Pressure | Rain* | Wind** | Luminosity | Snow |
|---|---|---|---|---|---|---|---|
| 1778004124 | 26.67° C | 70% | 1005.8 hPa | 0 mm | 2.24 m/s, 171° | 760 W/m² | - |
| 1778003820 | 26.11° C | 71% | 1005.7 hPa | 0 mm | 3.13 m/s, 182° | 782 W/m² | - |
| 1778003517 | 26.11° C | 70% | 1005.8 hPa | 0 mm | 3.58 m/s, 157° | 672 W/m² | - |
| 1778003214 | 26.11° C | 70% | 1006.1 hPa | 0 mm | 3.13 m/s, 164° | 636 W/m² | - |
| 1778002910 | 26.67° C | 70% | 1005.9 hPa | 0 mm | 3.13 m/s, 168° | 637 W/m² | - |
| 1778002607 | 26.11° C | 70% | 1006.2 hPa | 0 mm | 4.47 m/s, 172° | 697 W/m² | - |
| 1778002304 | 26.11° C | 70% | 1006.2 hPa | 0 mm | 4.47 m/s, 155° | 735 W/m² | - |
| 1778002001 | 25.56° C | 72% | 1006.2 hPa | 0 mm | 4.02 m/s, 167° | 557 W/m² | - |
| 1778001698 | 26.11° C | 70% | 1006.1 hPa | 0 mm | 2.68 m/s, 167° | 474 W/m² | - |
| 1778001397 | 25.56° C | 73% | 1006.4 hPa | 0 mm | 3.13 m/s, 156° | 593 W/m² | - |
| 1778001095 | 25.56° C | 71% | 1006.7 hPa | 0 mm | 3.13 m/s, 173° | 458 W/m² | - |
| 1778000792 | 25.56° C | 73% | 1006.8 hPa | 0 mm | 2.68 m/s, 147° | 758 W/m² | - |
| 1778000488 | 25° C | 72% | 1006.8 hPa | 0 mm | 4.47 m/s, 166° | 357 W/m² | - |
| 1778000183 | 25° C | 73% | 1006.7 hPa | 0 mm | 3.58 m/s, 185° | 313 W/m² | - |
| 1777999880 | 25° C | 73% | 1006.4 hPa | 0 mm | 4.02 m/s, 168° | 340 W/m² | - |
| 1777999575 | 25° C | 73% | 1006.3 hPa | 0 mm | 3.58 m/s, 179° | 383 W/m² | - |
| 1777999273 | 25° C | 73% | 1006.4 hPa | 0 mm | 3.58 m/s, 174° | 430 W/m² | - |
| 1777998971 | 25° C | 75% | 1006 hPa | 0 mm | 3.13 m/s, 158° | 489 W/m² | - |
| 1777998669 | 25° C | 73% | 1006.1 hPa | 0 mm | 4.02 m/s, 161° | 390 W/m² | - |
| 1777998366 | 25° C | 74% | 1006 hPa | 0 mm | 1.34 m/s, 166° | 507 W/m² | - |
| 1777998064 | 24.44° C | 76% | 1005.9 hPa | 0 mm | 0.89 m/s, 220° | 753 W/m² | - |
| 1777997760 | 24.44° C | 75% | 1006 hPa | 0 mm | 3.13 m/s, 180° | 411 W/m² | - |
| 1777997458 | 24.44° C | 76% | 1005.9 hPa | 0 mm | 3.58 m/s, 185° | 326 W/m² | - |
| 1777997155 | 24.44° C | 78% | 1005.8 hPa | 0 mm | 4.02 m/s, 165° | 446 W/m² | - |
| 1777996853 | 23.89° C | 76% | 1006 hPa | 0 mm | 4.47 m/s, 164° | 435 W/m² | - |
* Rain latest hour (hover to see other rain measurements)
** Current wind speed in m/s (hover to see current wind gust speed)